sensor_id;sensor_type;location;lat;lon;timestamp;temperature;humidity
324;DHT22;149;51.094;17.002;2022-07-06T00:01:03;16.70;99.90
324;DHT22;149;51.094;17.002;2022-07-06T00:03:30;16.70;99.90
324;DHT22;149;51.094;17.002;2022-07-06T00:05:57;16.60;99.90
324;DHT22;149;51.094;17.002;2022-07-06T00:08:25;16.50;99.90
324;DHT22;149;51.094;17.002;2022-07-06T00:10:52;16.50;99.90
324;DHT22;149;51.094;17.002;2022-07-06T00:13:19;16.40;99.90
324;DHT22;149;51.094;17.002;2022-07-06T00:15:46;16.40;99.90
324;DHT22;149;51.094;17.002;2022-07-06T00:18:13;16.30;99.90
324;DHT22;149;51.094;17.002;2022-07-06T00:20:41;16.10;99.90
324;DHT22;149;51.094;17.002;2022-07-06T00:23:08;16.20;99.90
324;DHT22;149;51.094;17.002;2022-07-06T00:25:35;16.10;99.90
324;DHT22;149;51.094;17.002;2022-07-06T00:28:02;16.20;99.90
324;DHT22;149;51.094;17.002;2022-07-06T00:30:30;16.10;99.90
324;DHT22;149;51.094;17.002;2022-07-06T00:32:57;16.10;99.90
324;DHT22;149;51.094;17.002;2022-07-06T00:35:25;16.20;99.90
324;DHT22;149;51.094;17.002;2022-07-06T00:37:52;16.30;99.90
324;DHT22;149;51.094;17.002;2022-07-06T00:40:20;16.20;99.90
324;DHT22;149;51.094;17.002;2022-07-06T00:42:47;16.20;99.90
324;DHT22;149;51.094;17.002;2022-07-06T00:45:17;16.20;99.90
324;DHT22;149;51.094;17.002;2022-07-06T00:47:45;16.20;99.90
324;DHT22;149;51.094;17.002;2022-07-06T00:50:14;16.20;99.90
324;DHT22;149;51.094;17.002;2022-07-06T00:52:43;16.10;99.90
324;DHT22;149;51.094;17.002;2022-07-06T00:55:10;16.20;99.90
324;DHT22;149;51.094;17.002;2022-07-06T00:57:38;16.20;99.90
324;DHT22;149;51.094;17.002;2022-07-06T01:00:11;16.20;99.90
324;DHT22;149;51.094;17.002;2022-07-06T01:02:39;16.20;99.90
324;DHT22;149;51.094;17.002;2022-07-06T01:05:08;16.20;99.90
324;DHT22;149;51.094;17.002;2022-07-06T01:07:37;16.20;99.90
324;DHT22;149;51.094;17.002;2022-07-06T01:10:07;16.20;99.90
324;DHT22;149;51.094;17.002;2022-07-06T01:12:34;16.20;99.90
324;DHT22;149;51.094;17.002;2022-07-06T01:15:05;16.10;99.90
324;DHT22;149;51.094;17.002;2022-07-06T01:17:37;16.00;99.90
324;DHT22;149;51.094;17.002;2022-07-06T01:20:18;16.00;99.90
324;DHT22;149;51.094;17.002;2022-07-06T01:22:47;16.00;99.90
324;DHT22;149;51.094;17.002;2022-07-06T01:25:15;16.00;99.90
324;DHT22;149;51.094;17.002;2022-07-06T01:27:42;15.70;99.90
324;DHT22;149;51.094;17.002;2022-07-06T01:30:11;15.80;99.90
324;DHT22;149;51.094;17.002;2022-07-06T01:32:39;15.80;99.90
324;DHT22;149;51.094;17.002;2022-07-06T01:35:08;15.70;99.90
324;DHT22;149;51.094;17.002;2022-07-06T01:37:36;15.60;99.90
324;DHT22;149;51.094;17.002;2022-07-06T01:40:05;15.50;99.90
324;DHT22;149;51.094;17.002;2022-07-06T01:42:33;15.50;99.90
324;DHT22;149;51.094;17.002;2022-07-06T01:45:02;15.60;99.90
324;DHT22;149;51.094;17.002;2022-07-06T01:47:29;15.60;99.90
324;DHT22;149;51.094;17.002;2022-07-06T01:50:00;15.70;99.90
324;DHT22;149;51.094;17.002;2022-07-06T01:52:28;15.70;99.90
324;DHT22;149;51.094;17.002;2022-07-06T01:54:56;15.80;99.90
324;DHT22;149;51.094;17.002;2022-07-06T01:57:26;15.70;99.90
324;DHT22;149;51.094;17.002;2022-07-06T01:59:53;15.70;99.90
324;DHT22;149;51.094;17.002;2022-07-06T02:02:20;15.70;99.90
324;DHT22;149;51.094;17.002;2022-07-06T02:04:50;15.60;99.90
324;DHT22;149;51.094;17.002;2022-07-06T02:07:18;15.50;99.90
324;DHT22;149;51.094;17.002;2022-07-06T02:09:45;15.50;99.90
324;DHT22;149;51.094;17.002;2022-07-06T02:12:12;15.50;99.90
324;DHT22;149;51.094;17.002;2022-07-06T02:14:39;15.60;99.90
324;DHT22;149;51.094;17.002;2022-07-06T02:17:06;15.70;99.90
324;DHT22;149;51.094;17.002;2022-07-06T02:19:33;15.90;99.90
324;DHT22;149;51.094;17.002;2022-07-06T02:22:00;16.00;99.90
324;DHT22;149;51.094;17.002;2022-07-06T02:24:27;15.80;99.90
324;DHT22;149;51.094;17.002;2022-07-06T02:26:54;15.70;99.90
324;DHT22;149;51.094;17.002;2022-07-06T02:29:21;15.60;99.90
324;DHT22;149;51.094;17.002;2022-07-06T02:31:48;15.60;99.90
324;DHT22;149;51.094;17.002;2022-07-06T02:34:16;15.60;99.90
324;DHT22;149;51.094;17.002;2022-07-06T02:36:43;15.60;99.90
324;DHT22;149;51.094;17.002;2022-07-06T02:39:10;15.60;99.90
324;DHT22;149;51.094;17.002;2022-07-06T02:41:37;15.60;99.90
324;DHT22;149;51.094;17.002;2022-07-06T02:44:04;15.50;99.90
324;DHT22;149;51.094;17.002;2022-07-06T02:46:31;15.60;99.90
324;DHT22;149;51.094;17.002;2022-07-06T02:48:58;15.70;99.90
324;DHT22;149;51.094;17.002;2022-07-06T02:51:25;15.70;99.90
324;DHT22;149;51.094;17.002;2022-07-06T02:53:52;15.70;99.90
324;DHT22;149;51.094;17.002;2022-07-06T02:56:19;15.90;99.90
324;DHT22;149;51.094;17.002;2022-07-06T02:58:46;15.90;99.90
324;DHT22;149;51.094;17.002;2022-07-06T03:01:13;15.80;99.90
324;DHT22;149;51.094;17.002;2022-07-06T03:03:40;15.90;99.90
324;DHT22;149;51.094;17.002;2022-07-06T03:06:07;16.10;99.90
324;DHT22;149;51.094;17.002;2022-07-06T03:08:35;16.20;99.90
324;DHT22;149;51.094;17.002;2022-07-06T03:11:02;16.50;99.90
324;DHT22;149;51.094;17.002;2022-07-06T03:13:29;16.60;99.90
324;DHT22;149;51.094;17.002;2022-07-06T03:15:56;16.70;99.90
324;DHT22;149;51.094;17.002;2022-07-06T03:18:24;16.70;99.90
324;DHT22;149;51.094;17.002;2022-07-06T03:20:52;16.50;99.90
324;DHT22;149;51.094;17.002;2022-07-06T03:23:19;16.40;99.90
324;DHT22;149;51.094;17.002;2022-07-06T03:25:47;16.10;99.90
324;DHT22;149;51.094;17.002;2022-07-06T03:28:15;15.90;99.90
324;DHT22;149;51.094;17.002;2022-07-06T03:30:43;15.80;99.90
324;DHT22;149;51.094;17.002;2022-07-06T03:33:10;15.90;99.90
324;DHT22;149;51.094;17.002;2022-07-06T03:35:40;15.90;99.90
324;DHT22;149;51.094;17.002;2022-07-06T03:38:07;15.90;99.90
324;DHT22;149;51.094;17.002;2022-07-06T03:40:35;15.90;99.90
324;DHT22;149;51.094;17.002;2022-07-06T03:43:02;15.90;99.90
324;DHT22;149;51.094;17.002;2022-07-06T03:45:29;16.00;99.90
324;DHT22;149;51.094;17.002;2022-07-06T03:47:57;16.00;99.90
324;DHT22;149;51.094;17.002;2022-07-06T03:50:28;16.00;99.90
324;DHT22;149;51.094;17.002;2022-07-06T03:52:55;16.00;99.90
324;DHT22;149;51.094;17.002;2022-07-06T03:55:22;16.10;99.90
324;DHT22;149;51.094;17.002;2022-07-06T03:57:49;16.30;99.90
324;DHT22;149;51.094;17.002;2022-07-06T04:00:17;16.40;99.90
324;DHT22;149;51.094;17.002;2022-07-06T04:02:44;16.40;99.90
324;DHT22;149;51.094;17.002;2022-07-06T04:05:12;16.40;99.90
324;DHT22;149;51.094;17.002;2022-07-06T04:07:39;16.40;99.90
324;DHT22;149;51.094;17.002;2022-07-06T04:10:07;16.40;99.90
324;DHT22;149;51.094;17.002;2022-07-06T04:12:40;16.40;99.90
324;DHT22;149;51.094;17.002;2022-07-06T04:15:09;16.40;99.90
324;DHT22;149;51.094;17.002;2022-07-06T04:17:37;16.40;99.90
324;DHT22;149;51.094;17.002;2022-07-06T04:20:20;16.50;99.90
324;DHT22;149;51.094;17.002;2022-07-06T04:22:48;16.50;99.90
324;DHT22;149;51.094;17.002;2022-07-06T04:25:15;16.50;99.90
324;DHT22;149;51.094;17.002;2022-07-06T04:27:43;16.40;99.90
324;DHT22;149;51.094;17.002;2022-07-06T04:30:11;16.40;99.90
324;DHT22;149;51.094;17.002;2022-07-06T04:32:38;16.30;99.90
324;DHT22;149;51.094;17.002;2022-07-06T04:35:06;15.90;99.90
324;DHT22;149;51.094;17.002;2022-07-06T04:37:34;15.40;99.90
324;DHT22;149;51.094;17.002;2022-07-06T04:40:01;15.00;99.90
324;DHT22;149;51.094;17.002;2022-07-06T04:42:28;14.80;99.90
324;DHT22;149;51.094;17.002;2022-07-06T04:44:55;14.70;99.90
324;DHT22;149;51.094;17.002;2022-07-06T04:47:23;14.70;99.90
324;DHT22;149;51.094;17.002;2022-07-06T04:49:50;14.70;99.90
324;DHT22;149;51.094;17.002;2022-07-06T04:52:17;14.60;99.90
324;DHT22;149;51.094;17.002;2022-07-06T04:54:44;14.50;99.90
324;DHT22;149;51.094;17.002;2022-07-06T04:57:11;14.50;99.90
324;DHT22;149;51.094;17.002;2022-07-06T04:59:39;14.50;99.90
324;DHT22;149;51.094;17.002;2022-07-06T05:02:06;14.50;99.90
324;DHT22;149;51.094;17.002;2022-07-06T05:04:33;14.50;99.90
324;DHT22;149;51.094;17.002;2022-07-06T05:07:01;14.60;99.90
324;DHT22;149;51.094;17.002;2022-07-06T05:09:28;14.60;99.90
324;DHT22;149;51.094;17.002;2022-07-06T05:11:56;14.60;99.90
324;DHT22;149;51.094;17.002;2022-07-06T05:14:23;14.60;99.90
324;DHT22;149;51.094;17.002;2022-07-06T05:16:50;14.70;99.90
324;DHT22;149;51.094;17.002;2022-07-06T05:19:17;14.70;99.90
324;DHT22;149;51.094;17.002;2022-07-06T05:21:44;14.80;99.90
324;DHT22;149;51.094;17.002;2022-07-06T05:24:12;14.90;99.90
324;DHT22;149;51.094;17.002;2022-07-06T05:26:39;15.20;99.90
324;DHT22;149;51.094;17.002;2022-07-06T05:29:06;15.40;99.90
324;DHT22;149;51.094;17.002;2022-07-06T05:31:33;15.40;99.90
324;DHT22;149;51.094;17.002;2022-07-06T05:34:01;15.50;99.90
324;DHT22;149;51.094;17.002;2022-07-06T05:36:28;15.60;99.90
324;DHT22;149;51.094;17.002;2022-07-06T05:38:56;15.60;99.90
324;DHT22;149;51.094;17.002;2022-07-06T05:41:23;15.80;99.90
324;DHT22;149;51.094;17.002;2022-07-06T05:43:56;15.90;99.90
324;DHT22;149;51.094;17.002;2022-07-06T05:46:23;15.80;99.90
324;DHT22;149;51.094;17.002;2022-07-06T05:48:51;15.70;99.90
324;DHT22;149;51.094;17.002;2022-07-06T05:51:36;15.80;99.90
324;DHT22;149;51.094;17.002;2022-07-06T05:54:04;16.20;99.90
324;DHT22;149;51.094;17.002;2022-07-06T05:56:31;16.20;99.90
324;DHT22;149;51.094;17.002;2022-07-06T05:58:58;16.10;99.90
324;DHT22;149;51.094;17.002;2022-07-06T06:01:26;16.10;99.90
324;DHT22;149;51.094;17.002;2022-07-06T06:03:53;15.70;99.90
324;DHT22;149;51.094;17.002;2022-07-06T06:06:20;15.60;99.90
324;DHT22;149;51.094;17.002;2022-07-06T06:08:48;15.90;99.90
324;DHT22;149;51.094;17.002;2022-07-06T06:11:15;16.20;99.90
324;DHT22;149;51.094;17.002;2022-07-06T06:13:42;16.30;99.90
324;DHT22;149;51.094;17.002;2022-07-06T06:16:09;16.50;99.90
324;DHT22;149;51.094;17.002;2022-07-06T06:18:37;16.50;99.90
324;DHT22;149;51.094;17.002;2022-07-06T06:21:08;16.60;99.90
324;DHT22;149;51.094;17.002;2022-07-06T06:23:36;16.70;99.90
324;DHT22;149;51.094;17.002;2022-07-06T06:26:03;17.00;99.90
324;DHT22;149;51.094;17.002;2022-07-06T06:28:30;17.10;99.90
324;DHT22;149;51.094;17.002;2022-07-06T06:30:58;17.20;99.90
324;DHT22;149;51.094;17.002;2022-07-06T06:33:25;17.30;99.90
324;DHT22;149;51.094;17.002;2022-07-06T06:35:53;17.30;99.90
324;DHT22;149;51.094;17.002;2022-07-06T06:38:22;17.30;99.90
324;DHT22;149;51.094;17.002;2022-07-06T06:40:55;17.30;99.90
324;DHT22;149;51.094;17.002;2022-07-06T06:43:22;17.30;99.90
324;DHT22;149;51.094;17.002;2022-07-06T06:45:49;17.50;99.90
324;DHT22;149;51.094;17.002;2022-07-06T06:48:16;17.50;99.90
324;DHT22;149;51.094;17.002;2022-07-06T06:50:46;17.70;99.90
324;DHT22;149;51.094;17.002;2022-07-06T06:53:14;17.90;99.90
324;DHT22;149;51.094;17.002;2022-07-06T06:55:41;17.80;99.90
324;DHT22;149;51.094;17.002;2022-07-06T06:58:08;17.50;99.90
324;DHT22;149;51.094;17.002;2022-07-06T07:00:35;18.00;99.90
324;DHT22;149;51.094;17.002;2022-07-06T07:03:03;19.50;99.90
324;DHT22;149;51.094;17.002;2022-07-06T07:05:30;21.80;99.90
324;DHT22;149;51.094;17.002;2022-07-06T07:07:57;24.20;99.90
324;DHT22;149;51.094;17.002;2022-07-06T07:10:31;26.00;99.90
324;DHT22;149;51.094;17.002;2022-07-06T07:12:58;27.00;99.90
324;DHT22;149;51.094;17.002;2022-07-06T07:15:26;29.00;99.90
324;DHT22;149;51.094;17.002;2022-07-06T07:17:53;29.60;99.90
324;DHT22;149;51.094;17.002;2022-07-06T07:20:20;30.70;99.90
324;DHT22;149;51.094;17.002;2022-07-06T07:22:47;31.80;99.90
324;DHT22;149;51.094;17.002;2022-07-06T07:25:14;32.30;99.90
324;DHT22;149;51.094;17.002;2022-07-06T07:27:42;33.80;98.20
324;DHT22;149;51.094;17.002;2022-07-06T07:30:09;33.60;95.00
324;DHT22;149;51.094;17.002;2022-07-06T07:32:37;33.70;93.90
324;DHT22;149;51.094;17.002;2022-07-06T07:35:07;33.90;93.50
324;DHT22;149;51.094;17.002;2022-07-06T07:37:35;34.00;92.70
324;DHT22;149;51.094;17.002;2022-07-06T07:40:03;32.90;92.80
324;DHT22;149;51.094;17.002;2022-07-06T07:42:31;33.40;92.80
324;DHT22;149;51.094;17.002;2022-07-06T07:44:59;33.50;89.70
324;DHT22;149;51.094;17.002;2022-07-06T07:47:26;33.90;90.00
324;DHT22;149;51.094;17.002;2022-07-06T07:49:54;34.60;84.90
324;DHT22;149;51.094;17.002;2022-07-06T07:52:21;34.20;83.00
324;DHT22;149;51.094;17.002;2022-07-06T07:54:48;34.70;84.20
324;DHT22;149;51.094;17.002;2022-07-06T07:57:36;35.20;79.40
324;DHT22;149;51.094;17.002;2022-07-06T08:00:04;34.20;80.10
324;DHT22;149;51.094;17.002;2022-07-06T08:02:32;34.50;80.70
324;DHT22;149;51.094;17.002;2022-07-06T08:04:59;35.40;76.10
324;DHT22;149;51.094;17.002;2022-07-06T08:07:26;36.00;76.50
324;DHT22;149;51.094;17.002;2022-07-06T08:09:53;35.10;78.10
324;DHT22;149;51.094;17.002;2022-07-06T08:12:20;34.70;75.40
324;DHT22;149;51.094;17.002;2022-07-06T08:14:47;35.20;80.10
324;DHT22;149;51.094;17.002;2022-07-06T08:17:14;35.20;72.10
324;DHT22;149;51.094;17.002;2022-07-06T08:19:41;35.40;72.40
324;DHT22;149;51.094;17.002;2022-07-06T08:22:08;36.20;69.90
324;DHT22;149;51.094;17.002;2022-07-06T08:24:36;35.50;69.00
324;DHT22;149;51.094;17.002;2022-07-06T08:27:03;34.40;71.60
324;DHT22;149;51.094;17.002;2022-07-06T08:29:31;33.90;72.80
324;DHT22;149;51.094;17.002;2022-07-06T08:31:58;35.30;70.70
324;DHT22;149;51.094;17.002;2022-07-06T08:34:36;35.30;68.90
324;DHT22;149;51.094;17.002;2022-07-06T08:37:03;34.80;70.80
324;DHT22;149;51.094;17.002;2022-07-06T08:39:30;33.90;71.40
324;DHT22;149;51.094;17.002;2022-07-06T08:41:58;33.60;73.10
324;DHT22;149;51.094;17.002;2022-07-06T08:44:28;33.90;72.50
324;DHT22;149;51.094;17.002;2022-07-06T08:46:57;33.40;73.40
324;DHT22;149;51.094;17.002;2022-07-06T08:49:25;33.90;72.70
324;DHT22;149;51.094;17.002;2022-07-06T08:51:54;34.90;70.00
324;DHT22;149;51.094;17.002;2022-07-06T08:54:21;35.00;70.40
324;DHT22;149;51.094;17.002;2022-07-06T08:56:49;34.50;69.40
324;DHT22;149;51.094;17.002;2022-07-06T08:59:17;34.40;68.30
324;DHT22;149;51.094;17.002;2022-07-06T09:01:46;33.90;70.10
324;DHT22;149;51.094;17.002;2022-07-06T09:04:18;34.20;70.40
324;DHT22;149;51.094;17.002;2022-07-06T09:06:49;35.40;67.90
324;DHT22;149;51.094;17.002;2022-07-06T09:09:21;35.90;63.50
324;DHT22;149;51.094;17.002;2022-07-06T09:11:50;35.40;65.40
324;DHT22;149;51.094;17.002;2022-07-06T09:14:18;34.40;66.60
324;DHT22;149;51.094;17.002;2022-07-06T09:16:56;34.20;67.00
324;DHT22;149;51.094;17.002;2022-07-06T09:19:28;35.50;65.40
324;DHT22;149;51.094;17.002;2022-07-06T09:21:55;35.50;63.40
324;DHT22;149;51.094;17.002;2022-07-06T09:24:23;33.90;66.80
324;DHT22;149;51.094;17.002;2022-07-06T09:26:55;30.70;76.10
324;DHT22;149;51.094;17.002;2022-07-06T09:29:29;30.70;76.70
324;DHT22;149;51.094;17.002;2022-07-06T09:32:01;31.70;75.70
324;DHT22;149;51.094;17.002;2022-07-06T09:34:45;32.60;72.50
324;DHT22;149;51.094;17.002;2022-07-06T09:37:14;33.00;71.20
324;DHT22;149;51.094;17.002;2022-07-06T09:39:42;32.30;73.00
324;DHT22;149;51.094;17.002;2022-07-06T09:42:10;30.20;81.80
324;DHT22;149;51.094;17.002;2022-07-06T09:44:39;28.20;86.50
324;DHT22;149;51.094;17.002;2022-07-06T09:47:11;27.50;91.40
324;DHT22;149;51.094;17.002;2022-07-06T09:49:39;27.00;94.90
324;DHT22;149;51.094;17.002;2022-07-06T09:52:10;26.70;94.50
324;DHT22;149;51.094;17.002;2022-07-06T09:54:38;27.00;96.30
324;DHT22;149;51.094;17.002;2022-07-06T09:57:06;26.70;95.50
324;DHT22;149;51.094;17.002;2022-07-06T09:59:36;26.10;96.10
324;DHT22;149;51.094;17.002;2022-07-06T10:02:05;25.80;98.40
324;DHT22;149;51.094;17.002;2022-07-06T10:04:32;25.70;98.00
324;DHT22;149;51.094;17.002;2022-07-06T10:07:00;25.80;97.20
324;DHT22;149;51.094;17.002;2022-07-06T10:09:29;26.10;97.40
324;DHT22;149;51.094;17.002;2022-07-06T10:11:58;26.00;96.50
324;DHT22;149;51.094;17.002;2022-07-06T10:14:33;25.80;94.20
324;DHT22;149;51.094;17.002;2022-07-06T10:17:02;25.40;96.70
324;DHT22;149;51.094;17.002;2022-07-06T10:19:31;25.50;96.70
324;DHT22;149;51.094;17.002;2022-07-06T10:22:00;25.40;97.70
324;DHT22;149;51.094;17.002;2022-07-06T10:24:29;25.00;96.10
324;DHT22;149;51.094;17.002;2022-07-06T10:26:56;24.60;94.70
324;DHT22;149;51.094;17.002;2022-07-06T10:29:24;24.50;96.50
324;DHT22;149;51.094;17.002;2022-07-06T10:31:52;24.60;95.50
324;DHT22;149;51.094;17.002;2022-07-06T10:34:21;24.80;96.70
324;DHT22;149;51.094;17.002;2022-07-06T10:36:50;25.30;95.80
324;DHT22;149;51.094;17.002;2022-07-06T10:39:32;25.70;93.30
324;DHT22;149;51.094;17.002;2022-07-06T10:45:08;26.90;91.40
324;DHT22;149;51.094;17.002;2022-07-06T10:47:36;27.00;92.60
324;DHT22;149;51.094;17.002;2022-07-06T10:50:03;27.10;91.40
324;DHT22;149;51.094;17.002;2022-07-06T10:52:58;27.00;92.20
324;DHT22;149;51.094;17.002;2022-07-06T10:55:34;26.40;82.60
324;DHT22;149;51.094;17.002;2022-07-06T10:58:03;26.10;84.40
324;DHT22;149;51.094;17.002;2022-07-06T11:00:52;26.30;88.30
324;DHT22;149;51.094;17.002;2022-07-06T11:08:53;26.80;85.40
324;DHT22;149;51.094;17.002;2022-07-06T11:11:46;26.30;87.40
324;DHT22;149;51.094;17.002;2022-07-06T11:14:21;25.70;90.30
324;DHT22;149;51.094;17.002;2022-07-06T11:19:16;26.10;91.50
324;DHT22;149;51.094;17.002;2022-07-06T11:21:44;26.00;89.90
324;DHT22;149;51.094;17.002;2022-07-06T11:24:19;26.20;86.90
324;DHT22;149;51.094;17.002;2022-07-06T11:26:50;25.80;89.80
324;DHT22;149;51.094;17.002;2022-07-06T11:29:18;25.80;90.90
324;DHT22;149;51.094;17.002;2022-07-06T11:31:49;25.50;91.60
324;DHT22;149;51.094;17.002;2022-07-06T11:34:24;25.70;92.10
324;DHT22;149;51.094;17.002;2022-07-06T11:36:57;25.60;91.40
324;DHT22;149;51.094;17.002;2022-07-06T11:39:31;25.20;92.60
324;DHT22;149;51.094;17.002;2022-07-06T11:42:00;24.60;93.20
324;DHT22;149;51.094;17.002;2022-07-06T11:44:28;24.20;94.30
324;DHT22;149;51.094;17.002;2022-07-06T11:46:55;23.80;94.80
324;DHT22;149;51.094;17.002;2022-07-06T11:49:24;23.60;96.10
324;DHT22;149;51.094;17.002;2022-07-06T11:51:51;23.40;97.80
324;DHT22;149;51.094;17.002;2022-07-06T11:54:20;23.20;98.00
324;DHT22;149;51.094;17.002;2022-07-06T11:56:52;23.40;99.30
324;DHT22;149;51.094;17.002;2022-07-06T11:59:25;23.60;98.20
324;DHT22;149;51.094;17.002;2022-07-06T12:02:03;23.80;97.50
324;DHT22;149;51.094;17.002;2022-07-06T12:04:32;23.90;98.30
324;DHT22;149;51.094;17.002;2022-07-06T12:07:06;24.00;98.40
324;DHT22;149;51.094;17.002;2022-07-06T12:09:36;24.30;99.30
324;DHT22;149;51.094;17.002;2022-07-06T12:12:05;24.40;97.90
324;DHT22;149;51.094;17.002;2022-07-06T12:14:34;24.40;98.20
324;DHT22;149;51.094;17.002;2022-07-06T12:17:06;24.40;97.80
324;DHT22;149;51.094;17.002;2022-07-06T12:19:34;24.20;97.90
324;DHT22;149;51.094;17.002;2022-07-06T12:22:03;24.50;95.70
324;DHT22;149;51.094;17.002;2022-07-06T12:24:32;24.70;93.60
324;DHT22;149;51.094;17.002;2022-07-06T12:27:19;24.70;93.50
324;DHT22;149;51.094;17.002;2022-07-06T12:29:48;24.40;93.70
324;DHT22;149;51.094;17.002;2022-07-06T12:32:24;24.20;95.20
324;DHT22;149;51.094;17.002;2022-07-06T12:35:07;24.10;95.30
324;DHT22;149;51.094;17.002;2022-07-06T12:37:35;24.10;94.90
324;DHT22;149;51.094;17.002;2022-07-06T12:40:12;24.40;93.60
324;DHT22;149;51.094;17.002;2022-07-06T12:42:48;24.60;93.20
324;DHT22;149;51.094;17.002;2022-07-06T12:45:16;24.80;91.90
324;DHT22;149;51.094;17.002;2022-07-06T12:48:00;25.10;92.10
324;DHT22;149;51.094;17.002;2022-07-06T12:50:34;25.40;91.60
324;DHT22;149;51.094;17.002;2022-07-06T12:53:03;25.30;85.00
324;DHT22;149;51.094;17.002;2022-07-06T12:55:30;24.90;85.20
324;DHT22;149;51.094;17.002;2022-07-06T12:57:58;24.70;88.50
324;DHT22;149;51.094;17.002;2022-07-06T13:00:25;24.70;88.90
324;DHT22;149;51.094;17.002;2022-07-06T13:02:54;24.50;90.60
324;DHT22;149;51.094;17.002;2022-07-06T13:05:37;24.60;90.70
324;DHT22;149;51.094;17.002;2022-07-06T13:08:06;24.50;89.70
324;DHT22;149;51.094;17.002;2022-07-06T13:10:33;24.50;90.10
324;DHT22;149;51.094;17.002;2022-07-06T13:13:03;24.50;90.40
324;DHT22;149;51.094;17.002;2022-07-06T13:15:29;24.60;90.30
324;DHT22;149;51.094;17.002;2022-07-06T13:17:57;24.60;90.90
324;DHT22;149;51.094;17.002;2022-07-06T13:20:24;25.00;90.30
324;DHT22;149;51.094;17.002;2022-07-06T13:22:51;25.40;87.40
324;DHT22;149;51.094;17.002;2022-07-06T13:25:19;25.60;88.60
324;DHT22;149;51.094;17.002;2022-07-06T13:27:46;25.30;83.80
324;DHT22;149;51.094;17.002;2022-07-06T13:30:14;25.00;86.00
324;DHT22;149;51.094;17.002;2022-07-06T13:32:41;25.00;87.50
324;DHT22;149;51.094;17.002;2022-07-06T13:35:08;25.00;88.40
324;DHT22;149;51.094;17.002;2022-07-06T13:37:36;24.90;87.90
324;DHT22;149;51.094;17.002;2022-07-06T13:40:04;24.80;88.20
324;DHT22;149;51.094;17.002;2022-07-06T13:42:31;24.50;89.40
324;DHT22;149;51.094;17.002;2022-07-06T13:44:58;24.40;90.10
324;DHT22;149;51.094;17.002;2022-07-06T13:47:25;24.20;90.20
324;DHT22;149;51.094;17.002;2022-07-06T13:49:53;24.20;90.20
324;DHT22;149;51.094;17.002;2022-07-06T13:52:20;24.10;88.70
324;DHT22;149;51.094;17.002;2022-07-06T13:54:47;24.00;89.70
324;DHT22;149;51.094;17.002;2022-07-06T13:57:14;24.20;89.00
324;DHT22;149;51.094;17.002;2022-07-06T13:59:41;24.50;87.20
324;DHT22;149;51.094;17.002;2022-07-06T14:02:09;24.40;88.00
324;DHT22;149;51.094;17.002;2022-07-06T14:04:38;24.30;87.00
324;DHT22;149;51.094;17.002;2022-07-06T14:07:06;24.40;86.90
324;DHT22;149;51.094;17.002;2022-07-06T14:09:34;24.30;86.00
324;DHT22;149;51.094;17.002;2022-07-06T14:12:01;24.10;85.70
324;DHT22;149;51.094;17.002;2022-07-06T14:14:29;24.10;85.10
324;DHT22;149;51.094;17.002;2022-07-06T14:16:56;24.20;83.90
324;DHT22;149;51.094;17.002;2022-07-06T14:19:23;24.20;84.80
324;DHT22;149;51.094;17.002;2022-07-06T14:21:51;24.20;84.80
324;DHT22;149;51.094;17.002;2022-07-06T14:24:18;24.30;86.30
324;DHT22;149;51.094;17.002;2022-07-06T14:26:46;24.30;85.60
324;DHT22;149;51.094;17.002;2022-07-06T14:29:13;24.50;85.00
324;DHT22;149;51.094;17.002;2022-07-06T14:31:41;24.60;84.50
324;DHT22;149;51.094;17.002;2022-07-06T14:34:08;24.80;82.50
324;DHT22;149;51.094;17.002;2022-07-06T14:36:36;24.90;80.80
324;DHT22;149;51.094;17.002;2022-07-06T14:39:05;25.10;82.80
324;DHT22;149;51.094;17.002;2022-07-06T14:41:32;25.20;80.70
324;DHT22;149;51.094;17.002;2022-07-06T14:43:59;25.20;82.40
324;DHT22;149;51.094;17.002;2022-07-06T14:46:26;25.00;82.50
324;DHT22;149;51.094;17.002;2022-07-06T14:48:54;24.80;81.50
324;DHT22;149;51.094;17.002;2022-07-06T14:51:21;24.80;81.60
324;DHT22;149;51.094;17.002;2022-07-06T14:53:49;24.90;79.80
324;DHT22;149;51.094;17.002;2022-07-06T14:56:20;24.60;80.90
324;DHT22;149;51.094;17.002;2022-07-06T14:58:47;24.20;83.10
324;DHT22;149;51.094;17.002;2022-07-06T15:01:34;23.90;83.50
324;DHT22;149;51.094;17.002;2022-07-06T15:04:02;23.80;86.90
324;DHT22;149;51.094;17.002;2022-07-06T15:06:29;23.80;90.10
324;DHT22;149;51.094;17.002;2022-07-06T15:09:16;23.60;88.10
324;DHT22;149;51.094;17.002;2022-07-06T15:11:44;23.20;87.30
324;DHT22;149;51.094;17.002;2022-07-06T15:14:12;22.90;89.60
324;DHT22;149;51.094;17.002;2022-07-06T15:16:39;22.80;89.80
324;DHT22;149;51.094;17.002;2022-07-06T15:19:07;22.80;90.50
324;DHT22;149;51.094;17.002;2022-07-06T15:21:34;22.80;90.60
324;DHT22;149;51.094;17.002;2022-07-06T15:24:01;23.10;90.20
324;DHT22;149;51.094;17.002;2022-07-06T15:26:30;23.30;88.10
324;DHT22;149;51.094;17.002;2022-07-06T15:28:57;23.50;88.80
324;DHT22;149;51.094;17.002;2022-07-06T15:31:24;23.50;88.90
324;DHT22;149;51.094;17.002;2022-07-06T15:33:51;23.40;86.00
324;DHT22;149;51.094;17.002;2022-07-06T15:36:19;23.40;87.20
324;DHT22;149;51.094;17.002;2022-07-06T15:38:46;23.30;85.20
324;DHT22;149;51.094;17.002;2022-07-06T15:41:13;23.20;86.20
324;DHT22;149;51.094;17.002;2022-07-06T15:43:41;23.00;87.40
324;DHT22;149;51.094;17.002;2022-07-06T15:46:08;22.80;88.60
324;DHT22;149;51.094;17.002;2022-07-06T15:48:35;22.60;88.70
324;DHT22;149;51.094;17.002;2022-07-06T15:51:04;22.50;90.70
324;DHT22;149;51.094;17.002;2022-07-06T15:53:33;22.40;89.40
324;DHT22;149;51.094;17.002;2022-07-06T15:56:01;22.30;90.50
324;DHT22;149;51.094;17.002;2022-07-06T15:58:28;22.20;90.70
324;DHT22;149;51.094;17.002;2022-07-06T16:00:55;22.30;91.00
324;DHT22;149;51.094;17.002;2022-07-06T16:03:23;22.40;90.90
324;DHT22;149;51.094;17.002;2022-07-06T16:05:50;22.50;91.50
324;DHT22;149;51.094;17.002;2022-07-06T16:08:37;22.60;91.90
324;DHT22;149;51.094;17.002;2022-07-06T16:11:14;22.60;90.90
324;DHT22;149;51.094;17.002;2022-07-06T16:13:42;22.50;90.30
324;DHT22;149;51.094;17.002;2022-07-06T16:16:10;22.10;90.00
324;DHT22;149;51.094;17.002;2022-07-06T16:18:39;22.00;91.10
324;DHT22;149;51.094;17.002;2022-07-06T16:21:07;22.00;90.90
324;DHT22;149;51.094;17.002;2022-07-06T16:23:35;21.90;90.90
324;DHT22;149;51.094;17.002;2022-07-06T16:26:05;22.00;90.70
324;DHT22;149;51.094;17.002;2022-07-06T16:28:34;21.90;91.40
324;DHT22;149;51.094;17.002;2022-07-06T16:31:02;21.90;90.80
324;DHT22;149;51.094;17.002;2022-07-06T16:33:29;22.00;90.90
324;DHT22;149;51.094;17.002;2022-07-06T16:36:05;22.00;91.20
324;DHT22;149;51.094;17.002;2022-07-06T16:38:34;21.90;90.50